KSPW/SPW METAR and TAF weather

Enter ICAO airport designator
Station Type Date Time Source
KSPW METAR 2022/01/27 21:53 UTC NOAA

KSPW 272153Z AUTO 34013G22KT 10SM FEW031 OVC055 M07/M13 A3029 RMK AO2 PK WND 34029/2055 SLP277 T10721128


Station Type Date Time Source
KSPW Decoded METAR 2022/01/27 21:53 UTC NOAA

SPENCER MUNICIPAL AIRPORT, IA, United States (KSPW) 43-10N 95-13W 403M
Jan 27, 2022 - 04:53 PM EST / 2022.01.27 2153 UTC
Wind: from the NNW (340 degrees) at 15 MPH (13 KT) gusting to 25 MPH (22 KT):0
Visibility: 10 mile(s):0
Sky conditions: overcast
Temperature: 19.0 F (-7.2 C)
Windchill: 5 F (-15 C):1
Dew Point: 9.0 F (-12.8 C)
Relative Humidity: 64%
Pressure (altimeter): 30.29 in. Hg (1025 hPa)
ob: KSPW 272153Z AUTO 34013G22KT 10SM FEW031 OVC055 M07/M13 A3029 RMK AO2 PK WND 34029/2055 SLP277 T10721128
cycle: 22

Station Type Date Time Source
KSPW TAF UTC NOAA

Error!

Example: see airport list